Time;durP1;ratioP1;P1;durP2;ratioP2;P2;SDS_P1;SDS_P2;PMS_P1;PMS_P2;Temp;Humidity;BMP_temperature;BMP_pressure;BME280_temperature;BME280_humidity;BME280_pressure;Samples;Min_cycle;Max_cycle;Signal;HPM_P1;HPM_P2
2021/07/25 00:01:00;;;;;;;5.88;3.97;;;;;;;;;;4975801;28;20065;-79
2021/07/25 00:03:25;;;;;;;5.38;4.00;;;;;;;;;;4972252;28;20050;-77
2021/07/25 00:05:50;;;;;;;6.18;3.60;;;;;;;;;;4990489;28;20060;-80
2021/07/25 00:08:16;;;;;;;5.25;3.70;;;;;;;;;;4989898;28;20068;-79
2021/07/25 00:10:42;;;;;;;6.03;3.45;;;;;;;;;;4989941;28;20058;-79
2021/07/25 00:13:07;;;;;;;5.00;3.42;;;;;;;;;;4976170;28;20030;-79
2021/07/25 00:15:33;;;;;;;6.18;3.63;;;;;;;;;;4993045;28;20023;-79
2021/07/25 00:17:58;;;;;;;4.63;3.50;;;;;;;;;;4990992;28;20054;-76
2021/07/25 00:20:23;;;;;;;5.00;3.15;;;;;;;;;;4994886;28;20037;-77
2021/07/25 00:22:49;;;;;;;5.47;3.63;;;;;;;;;;4978404;28;20030;-79
2021/07/25 00:25:20;;;;;;;5.97;3.60;;;;;;;;;;4977754;28;20305;-79
2021/07/25 00:27:49;;;;;;;6.40;4.07;;;;;;;;;;4977856;28;20034;-77
2021/07/25 00:30:14;;;;;;;5.22;4.03;;;;;;;;;;4993586;28;20096;-78
2021/07/25 00:32:40;;;;;;;5.45;3.88;;;;;;;;;;4993872;28;20038;-78
2021/07/25 00:35:06;;;;;;;5.57;3.88;;;;;;;;;;4993385;28;20018;-77
2021/07/25 00:37:31;;;;;;;7.18;4.75;;;;;;;;;;4976864;28;20042;-79
2021/07/25 00:39:57;;;;;;;7.55;4.45;;;;;;;;;;4991536;28;20080;-78
2021/07/25 00:42:23;;;;;;;6.00;4.00;;;;;;;;;;4991069;28;20061;-79
2021/07/25 00:44:48;;;;;;;6.80;4.40;;;;;;;;;;4975915;28;20176;-78
2021/07/25 00:47:13;;;;;;;5.03;3.83;;;;;;;;;;4991443;28;20133;-78
2021/07/25 00:49:39;;;;;;;6.43;4.20;;;;;;;;;;4981629;28;20023;-79
2021/07/25 00:52:07;;;;;;;10.45;5.30;;;;;;;;;;4978508;28;20034;-78
2021/07/25 00:54:34;;;;;;;6.45;4.82;;;;;;;;;;4994895;28;20073;-78
2021/07/25 00:56:59;;;;;;;12.73;5.68;;;;;;;;;;4995748;28;20058;-79
2021/07/25 00:59:24;;;;;;;7.30;4.65;;;;;;;;;;4997125;28;20042;-79
2021/07/25 01:01:50;;;;;;;7.38;3.85;;;;;;;;;;4978097;28;20038;-79
2021/07/25 01:04:33;;;;;;;6.32;3.72;;;;;;;;;;4977288;28;20084;-79
2021/07/25 01:07:05;;;;;;;7.10;3.92;;;;;;;;;;4993092;28;20038;-79
2021/07/25 01:09:50;;;;;;;9.77;4.15;;;;;;;;;;4993747;28;20030;-77
2021/07/25 01:12:34;;;;;;;5.53;3.30;;;;;;;;;;4938323;28;20129;-78
2021/07/25 01:15:03;;;;;;;6.13;3.92;;;;;;;;;;4993656;28;20030;-79
2021/07/25 01:17:33;;;;;;;5.30;3.90;;;;;;;;;;4994061;28;20106;-79
2021/07/25 01:19:59;;;;;;;5.28;3.38;;;;;;;;;;4995707;28;20038;-77
2021/07/25 01:22:27;;;;;;;5.03;3.60;;;;;;;;;;4996580;28;20393;-78
2021/07/25 01:24:53;;;;;;;6.20;4.07;;;;;;;;;;4977442;28;20034;-79
2021/07/25 01:27:20;;;;;;;6.60;4.35;;;;;;;;;;4986891;28;20033;-78
2021/07/25 01:29:47;;;;;;;9.25;5.18;;;;;;;;;;4994140;28;20045;-79
2021/07/25 01:32:16;;;;;;;12.32;7.30;;;;;;;;;;4978573;28;20022;-79
2021/07/25 01:34:44;;;;;;;10.70;6.82;;;;;;;;;;4994932;28;20041;-79
2021/07/25 01:37:11;;;;;;;8.55;6.40;;;;;;;;;;4979235;28;20026;-79
2021/07/25 01:39:37;;;;;;;8.75;6.70;;;;;;;;;;5001139;28;20037;-78
2021/07/25 01:42:02;;;;;;;7.88;6.07;;;;;;;;;;4988276;28;20058;-79
2021/07/25 01:44:27;;;;;;;8.05;5.30;;;;;;;;;;4987731;28;20030;-77
2021/07/25 01:46:53;;;;;;;8.30;5.78;;;;;;;;;;5006378;28;20026;-79
2021/07/25 01:49:18;;;;;;;6.85;5.03;;;;;;;;;;4994526;28;20565;-79
2021/07/25 01:51:43;;;;;;;8.57;5.80;;;;;;;;;;4991316;28;20030;-78
2021/07/25 01:54:09;;;;;;;8.13;5.28;;;;;;;;;;4990936;28;20030;-79
2021/07/25 01:56:34;;;;;;;10.80;7.07;;;;;;;;;;4991116;28;20377;-77
2021/07/25 01:58:59;;;;;;;8.77;6.20;;;;;;;;;;4990997;28;20053;-77
2021/07/25 02:01:25;;;;;;;9.25;6.13;;;;;;;;;;4992125;28;20038;-78
2021/07/25 02:03:50;;;;;;;6.68;5.50;;;;;;;;;;4994534;28;20041;-78
2021/07/25 02:06:16;;;;;;;7.55;5.10;;;;;;;;;;4991061;28;20033;-79
2021/07/25 02:08:41;;;;;;;7.35;5.15;;;;;;;;;;4992476;28;20134;-78
2021/07/25 02:11:08;;;;;;;7.50;5.22;;;;;;;;;;4975551;28;20094;-79
2021/07/25 02:13:33;;;;;;;7.53;5.18;;;;;;;;;;4993172;28;20161;-77
2021/07/25 02:15:59;;;;;;;8.38;5.03;;;;;;;;;;4991465;28;20362;-78
2021/07/25 02:18:27;;;;;;;7.75;5.10;;;;;;;;;;4974502;28;20065;-78
2021/07/25 02:20:53;;;;;;;7.28;5.00;;;;;;;;;;4980325;28;20106;-77
2021/07/25 02:23:20;;;;;;;7.50;4.80;;;;;;;;;;4997554;28;20439;-77
2021/07/25 02:25:48;;;;;;;6.45;4.65;;;;;;;;;;4997346;28;20105;-78
2021/07/25 02:28:13;;;;;;;7.13;5.28;;;;;;;;;;4998364;28;20030;-77
2021/07/25 02:30:39;;;;;;;8.15;5.10;;;;;;;;;;4980558;28;20040;-77
2021/07/25 02:33:05;;;;;;;6.47;4.80;;;;;;;;;;4981273;28;20121;-76
2021/07/25 02:35:33;;;;;;;7.18;5.15;;;;;;;;;;4981101;28;20040;-76
2021/07/25 02:37:58;;;;;;;9.80;5.10;;;;;;;;;;4980912;28;20030;-77
2021/07/25 02:40:24;;;;;;;9.32;4.30;;;;;;;;;;4980053;28;20034;-77
2021/07/25 02:42:49;;;;;;;9.30;4.95;;;;;;;;;;4997628;28;20030;-77
2021/07/25 02:45:14;;;;;;;8.88;5.28;;;;;;;;;;4978790;28;20049;-77
2021/07/25 02:47:42;;;;;;;6.57;5.18;;;;;;;;;;4993492;28;20042;-78
2021/07/25 02:50:10;;;;;;;7.20;5.30;;;;;;;;;;4976183;28;20029;-79
2021/07/25 02:52:36;;;;;;;10.48;6.18;;;;;;;;;;4993888;28;20026;-79
2021/07/25 02:55:02;;;;;;;10.02;5.97;;;;;;;;;;4992146;28;20038;-78
2021/07/25 02:57:27;;;;;;;7.25;5.03;;;;;;;;;;4993453;28;20062;-79
2021/07/25 02:59:53;;;;;;;8.15;5.63;;;;;;;;;;4991343;28;20065;-78
2021/07/25 03:02:21;;;;;;;9.73;5.80;;;;;;;;;;4977224;28;20048;-78
2021/07/25 03:04:48;;;;;;;8.32;5.50;;;;;;;;;;4993029;28;20026;-79
2021/07/25 03:07:16;;;;;;;6.70;4.70;;;;;;;;;;4975161;28;20050;-79
2021/07/25 03:09:42;;;;;;;7.43;5.15;;;;;;;;;;4974566;28;20026;-79
2021/07/25 03:12:07;;;;;;;7.03;5.03;;;;;;;;;;4991562;28;20078;-78
2021/07/25 03:14:32;;;;;;;7.93;5.22;;;;;;;;;;4997473;28;20103;-79
2021/07/25 03:16:58;;;;;;;8.68;5.05;;;;;;;;;;4991052;28;20034;-78
2021/07/25 03:19:23;;;;;;;9.52;5.70;;;;;;;;;;4991740;28;20037;-78
2021/07/25 03:21:48;;;;;;;7.47;5.38;;;;;;;;;;4991120;28;20085;-79
2021/07/25 03:24:14;;;;;;;7.68;5.20;;;;;;;;;;4977462;28;20077;-77
2021/07/25 03:26:39;;;;;;;10.05;5.05;;;;;;;;;;4978796;28;20093;-77
2021/07/25 03:29:05;;;;;;;12.40;5.18;;;;;;;;;;4994524;28;20030;-78
2021/07/25 03:31:30;;;;;;;7.88;5.22;;;;;;;;;;4995994;28;20081;-77
2021/07/25 03:33:59;;;;;;;8.00;5.53;;;;;;;;;;4996383;28;20114;-79
2021/07/25 03:36:26;;;;;;;8.50;5.93;;;;;;;;;;4974641;28;20026;-79
2021/07/25 03:38:51;;;;;;;8.10;4.90;;;;;;;;;;4990247;28;20034;-79
2021/07/25 03:41:17;;;;;;;7.93;5.15;;;;;;;;;;4974977;28;20290;-79
2021/07/25 03:43:42;;;;;;;7.00;5.00;;;;;;;;;;4990944;28;20046;-78
2021/07/25 03:46:08;;;;;;;6.03;4.38;;;;;;;;;;4990748;28;20030;-77
2021/07/25 03:48:33;;;;;;;10.65;5.25;;;;;;;;;;4974415;28;20069;-79
2021/07/25 03:50:58;;;;;;;7.95;5.47;;;;;;;;;;4991233;28;20015;-79
2021/07/25 03:53:24;;;;;;;8.18;5.18;;;;;;;;;;4975567;28;20041;-78
2021/07/25 03:55:49;;;;;;;10.57;5.10;;;;;;;;;;4977892;28;20506;-79
2021/07/25 03:58:15;;;;;;;8.85;4.93;;;;;;;;;;4996022;28;20046;-79
2021/07/25 04:00:40;;;;;;;6.40;4.50;;;;;;;;;;4981949;28;20484;-79
2021/07/25 04:03:06;;;;;;;10.73;5.38;;;;;;;;;;4994665;28;20030;-79
2021/07/25 04:05:32;;;;;;;6.90;4.50;;;;;;;;;;4978091;28;20444;-78
2021/07/25 04:07:57;;;;;;;6.38;4.30;;;;;;;;;;4977811;28;20084;-78
2021/07/25 04:10:23;;;;;;;6.63;4.18;;;;;;;;;;4977772;28;20460;-78
2021/07/25 04:12:48;;;;;;;6.70;5.25;;;;;;;;;;4994566;28;20026;-78
2021/07/25 04:15:14;;;;;;;11.13;5.68;;;;;;;;;;4995723;28;20564;-79
2021/07/25 04:17:39;;;;;;;8.95;5.75;;;;;;;;;;4994068;28;20062;-79
2021/07/25 04:20:05;;;;;;;7.95;5.45;;;;;;;;;;4996808;28;20038;-77
2021/07/25 04:22:34;;;;;;;7.05;5.07;;;;;;;;;;4996030;28;20046;-78
2021/07/25 04:25:02;;;;;;;7.03;4.90;;;;;;;;;;4995845;28;20038;-78
2021/07/25 04:27:28;;;;;;;7.00;5.07;;;;;;;;;;4979040;28;20061;-79
2021/07/25 04:29:56;;;;;;;6.40;4.50;;;;;;;;;;4994139;28;20033;-79
2021/07/25 04:32:24;;;;;;;6.50;4.90;;;;;;;;;;4993820;28;20500;-78
2021/07/25 04:34:50;;;;;;;5.50;4.13;;;;;;;;;;4979777;28;20037;-78
2021/07/25 04:37:23;;;;;;;6.30;4.32;;;;;;;;;;4995928;28;20029;-78
2021/07/25 04:39:49;;;;;;;6.43;5.18;;;;;;;;;;4978444;28;20043;-78
2021/07/25 04:42:20;;;;;;;12.27;6.63;;;;;;;;;;4993863;28;20038;-78
2021/07/25 04:44:59;;;;;;;8.25;5.95;;;;;;;;;;4993825;28;20473;-79
2021/07/25 04:47:33;;;;;;;7.15;5.38;;;;;;;;;;4977855;28;20038;-79
2021/07/25 04:50:02;;;;;;;7.95;5.45;;;;;;;;;;4994053;28;20053;-78
2021/07/25 04:52:31;;;;;;;6.97;4.57;;;;;;;;;;4993377;28;20113;-79
2021/07/25 04:54:59;;;;;;;7.50;4.88;;;;;;;;;;4977131;28;20125;-78
2021/07/25 04:57:25;;;;;;;8.02;5.03;;;;;;;;;;4992957;28;20038;-78
2021/07/25 04:59:52;;;;;;;7.57;5.28;;;;;;;;;;4977065;28;20539;-79
2021/07/25 05:02:20;;;;;;;7.47;5.18;;;;;;;;;;4976935;28;20030;-79
2021/07/25 05:04:47;;;;;;;7.82;5.30;;;;;;;;;;4977029;28;20071;-78
2021/07/25 05:07:13;;;;;;;10.07;5.93;;;;;;;;;;4992145;28;20084;-79
2021/07/25 05:09:38;;;;;;;7.35;5.20;;;;;;;;;;4992699;28;20432;-79
2021/07/25 05:12:09;;;;;;;8.10;5.50;;;;;;;;;;4974498;28;20121;-78
2021/07/25 05:14:54;;;;;;;9.70;5.65;;;;;;;;;;4976203;28;20041;-78
2021/07/25 05:17:22;;;;;;;7.85;5.55;;;;;;;;;;4977184;28;20034;-78
2021/07/25 05:19:47;;;;;;;7.70;5.30;;;;;;;;;;4994310;28;20064;-78
2021/07/25 05:22:19;;;;;;;7.75;5.18;;;;;;;;;;4992727;28;20042;-79
2021/07/25 05:24:45;;;;;;;6.88;5.60;;;;;;;;;;4992901;28;20057;-80
2021/07/25 05:27:17;;;;;;;8.43;5.93;;;;;;;;;;4996703;28;20508;-78
2021/07/25 05:29:42;;;;;;;6.53;4.70;;;;;;;;;;4976795;28;20030;-78
2021/07/25 05:32:07;;;;;;;7.43;5.03;;;;;;;;;;4994577;28;20034;-77
2021/07/25 05:34:33;;;;;;;6.10;4.60;;;;;;;;;;4979037;28;20034;-78
2021/07/25 05:36:58;;;;;;;7.53;4.95;;;;;;;;;;4996178;28;20027;-77
2021/07/25 05:39:23;;;;;;;7.85;5.30;;;;;;;;;;4994697;28;20073;-78
2021/07/25 05:41:49;;;;;;;7.55;5.22;;;;;;;;;;4995194;28;20046;-78
2021/07/25 05:44:14;;;;;;;8.80;5.72;;;;;;;;;;4993443;28;20038;-77
2021/07/25 05:46:39;;;;;;;8.43;5.30;;;;;;;;;;4994231;28;20038;-78
2021/07/25 05:49:05;;;;;;;6.82;4.90;;;;;;;;;;4993189;28;20045;-79
2021/07/25 05:51:30;;;;;;;7.93;4.82;;;;;;;;;;4993992;28;20118;-78
2021/07/25 05:53:55;;;;;;;7.45;4.70;;;;;;;;;;4977720;28;20042;-80
2021/07/25 05:56:21;;;;;;;6.47;4.57;;;;;;;;;;4977817;28;20395;-79
2021/07/25 05:58:46;;;;;;;6.25;4.70;;;;;;;;;;4997987;28;20045;-79
2021/07/25 06:01:11;;;;;;;7.38;5.50;;;;;;;;;;4997557;28;20105;-78
2021/07/25 06:03:37;;;;;;;7.60;5.75;;;;;;;;;;5004887;28;20389;-77
2021/07/25 06:06:10;;;;;;;7.63;5.85;;;;;;;;;;4984350;28;20372;-77
2021/07/25 06:08:36;;;;;;;7.00;5.80;;;;;;;;;;4981069;28;20062;-77
2021/07/25 06:11:01;;;;;;;9.45;5.80;;;;;;;;;;5004051;28;20030;-78
2021/07/25 06:13:26;;;;;;;7.82;5.32;;;;;;;;;;5007841;28;20059;-79
2021/07/25 06:15:52;;;;;;;7.68;5.20;;;;;;;;;;4986409;28;20057;-79
2021/07/25 06:18:17;;;;;;;7.38;5.32;;;;;;;;;;4996585;28;20121;-77
2021/07/25 06:20:42;;;;;;;8.68;4.88;;;;;;;;;;5005079;28;20029;-79
2021/07/25 06:23:09;;;;;;;5.65;4.28;;;;;;;;;;4997354;28;20034;-79
2021/07/25 06:25:35;;;;;;;6.85;4.78;;;;;;;;;;4975814;28;20041;-79
2021/07/25 06:28:01;;;;;;;6.70;4.60;;;;;;;;;;4992996;28;20293;-80
2021/07/25 06:30:27;;;;;;;8.05;4.78;;;;;;;;;;4993682;28;20097;-80
2021/07/25 06:32:58;;;;;;;6.68;4.78;;;;;;;;;;4977686;28;20325;-79
2021/07/25 06:35:25;;;;;;;7.75;4.75;;;;;;;;;;4978001;28;20041;-78
2021/07/25 06:37:51;;;;;;;6.18;4.60;;;;;;;;;;4993816;28;20057;-78
2021/07/25 06:40:16;;;;;;;6.45;4.25;;;;;;;;;;4977755;28;20461;-80
2021/07/25 06:42:42;;;;;;;6.32;4.55;;;;;;;;;;4977670;28;20113;-79
2021/07/25 06:45:07;;;;;;;9.45;4.50;;;;;;;;;;4977298;28;20124;-78
2021/07/25 06:47:38;;;;;;;5.85;3.90;;;;;;;;;;4976957;28;20512;-78
2021/07/25 06:50:03;;;;;;;7.47;4.50;;;;;;;;;;4992920;28;20037;-78
2021/07/25 06:52:29;;;;;;;6.00;4.10;;;;;;;;;;4992761;28;20062;-78
2021/07/25 06:54:54;;;;;;;5.75;3.88;;;;;;;;;;4977025;28;20057;-77
2021/07/25 06:57:23;;;;;;;5.25;3.50;;;;;;;;;;4993397;28;20074;-80
2021/07/25 06:59:48;;;;;;;7.25;4.10;;;;;;;;;;4993072;28;20094;-77
2021/07/25 07:02:13;;;;;;;5.03;3.53;;;;;;;;;;4976037;28;20068;-80
2021/07/25 07:04:41;;;;;;;6.88;3.90;;;;;;;;;;4992767;28;20053;-79
2021/07/25 07:07:06;;;;;;;5.80;3.70;;;;;;;;;;4977088;28;20061;-79
2021/07/25 07:09:32;;;;;;;5.18;3.70;;;;;;;;;;4997824;28;20039;-79
2021/07/25 07:12:00;;;;;;;4.30;3.00;;;;;;;;;;4976365;28;20468;-80
2021/07/25 07:14:26;;;;;;;5.85;3.50;;;;;;;;;;4976297;28;20029;-79
2021/07/25 07:16:53;;;;;;;4.78;3.33;;;;;;;;;;4976929;28;20037;-79
2021/07/25 07:19:18;;;;;;;6.30;3.30;;;;;;;;;;4994154;28;20022;-78
2021/07/25 07:21:44;;;;;;;5.50;3.63;;;;;;;;;;4993188;28;20488;-79
2021/07/25 07:24:09;;;;;;;5.25;3.10;;;;;;;;;;4976232;28;20082;-79
2021/07/25 07:26:35;;;;;;;5.30;2.97;;;;;;;;;;4992166;28;20030;-78
2021/07/25 07:29:00;;;;;;;6.00;3.60;;;;;;;;;;4981706;28;20138;-79
2021/07/25 07:31:25;;;;;;;8.90;4.07;;;;;;;;;;4983863;28;20038;-79
2021/07/25 07:33:51;;;;;;;6.18;3.67;;;;;;;;;;4981645;28;20041;-78
2021/07/25 07:36:16;;;;;;;4.32;3.00;;;;;;;;;;4999286;28;20038;-79
2021/07/25 07:38:41;;;;;;;7.15;3.30;;;;;;;;;;4998701;28;20038;-78
2021/07/25 07:41:07;;;;;;;4.70;3.20;;;;;;;;;;4983548;28;20559;-75
2021/07/25 07:43:32;;;;;;;6.00;3.28;;;;;;;;;;5001137;28;20129;-77
2021/07/25 07:45:57;;;;;;;4.70;3.23;;;;;;;;;;5002421;28;20018;-78
2021/07/25 07:48:25;;;;;;;5.17;3.70;;;;;;;;;;5003668;28;20045;-75
2021/07/25 07:50:51;;;;;;;5.20;3.20;;;;;;;;;;5004888;28;20041;-77
2021/07/25 07:53:18;;;;;;;5.35;3.10;;;;;;;;;;5001173;28;20034;-78
2021/07/25 07:55:44;;;;;;;4.15;2.90;;;;;;;;;;4979398;28;20026;-77
2021/07/25 07:58:09;;;;;;;4.60;3.13;;;;;;;;;;4979240;28;20169;-78
2021/07/25 08:00:35;;;;;;;4.53;2.87;;;;;;;;;;4994786;28;20488;-79
2021/07/25 08:03:00;;;;;;;5.27;3.10;;;;;;;;;;4979076;28;20034;-78
2021/07/25 08:05:25;;;;;;;4.23;2.93;;;;;;;;;;4979445;28;20030;-79
2021/07/25 08:07:51;;;;;;;4.80;2.90;;;;;;;;;;4976925;28;20753;-76
2021/07/25 08:10:16;;;;;;;5.13;2.80;;;;;;;;;;4992122;28;20574;-77
2021/07/25 08:12:42;;;;;;;5.03;2.90;;;;;;;;;;4993180;28;20034;-78
2021/07/25 08:15:08;;;;;;;5.40;2.83;;;;;;;;;;4979112;28;20572;-77
2021/07/25 08:17:34;;;;;;;5.57;2.92;;;;;;;;;;4993865;28;20369;-76
2021/07/25 08:19:59;;;;;;;4.77;3.07;;;;;;;;;;4994168;28;20534;-78
2021/07/25 08:22:24;;;;;;;5.97;2.95;;;;;;;;;;4978208;28;20038;-78
2021/07/25 08:24:50;;;;;;;7.65;2.72;;;;;;;;;;4976549;28;20046;-76
2021/07/25 08:27:15;;;;;;;3.63;2.75;;;;;;;;;;4994094;28;20546;-77
2021/07/25 08:29:41;;;;;;;4.47;2.47;;;;;;;;;;4994193;28;20088;-78
2021/07/25 08:32:10;;;;;;;7.83;3.00;;;;;;;;;;4996541;28;20038;-78
2021/07/25 08:34:38;;;;;;;5.22;2.95;;;;;;;;;;4993795;28;20022;-77
2021/07/25 08:37:04;;;;;;;3.55;2.60;;;;;;;;;;4994646;28;20492;-78
2021/07/25 08:39:29;;;;;;;4.35;2.67;;;;;;;;;;4993791;28;20034;-78
2021/07/25 08:41:59;;;;;;;5.03;3.10;;;;;;;;;;4978163;28;20061;-77
2021/07/25 08:44:24;;;;;;;5.10;2.75;;;;;;;;;;4977836;28;20098;-76
2021/07/25 08:46:54;;;;;;;4.38;2.70;;;;;;;;;;4997422;28;20050;-76
2021/07/25 08:49:26;;;;;;;3.60;2.60;;;;;;;;;;4981988;28;20029;-79
2021/07/25 08:51:58;;;;;;;4.18;2.80;;;;;;;;;;4983426;28;20393;-78
2021/07/25 08:54:27;;;;;;;4.03;2.70;;;;;;;;;;4998894;28;20053;-76
2021/07/25 08:56:57;;;;;;;5.00;3.00;;;;;;;;;;4997301;28;20042;-79
2021/07/25 08:59:24;;;;;;;3.80;2.78;;;;;;;;;;4995535;28;20051;-76
2021/07/25 09:01:50;;;;;;;3.90;2.60;;;;;;;;;;4992413;28;20026;-76
2021/07/25 09:04:18;;;;;;;3.70;2.70;;;;;;;;;;4991597;28;20049;-76
2021/07/25 09:06:47;;;;;;;4.05;2.80;;;;;;;;;;4996148;28;20256;-76
2021/07/25 09:09:12;;;;;;;4.93;2.67;;;;;;;;;;4993459;28;20062;-78
2021/07/25 09:11:38;;;;;;;5.27;2.70;;;;;;;;;;4992136;28;20108;-78
2021/07/25 09:14:04;;;;;;;3.77;2.50;;;;;;;;;;4976619;28;20062;-78
2021/07/25 09:16:33;;;;;;;6.70;3.00;;;;;;;;;;4993637;28;20481;-78
2021/07/25 09:19:01;;;;;;;3.92;2.80;;;;;;;;;;4976919;28;20124;-78
2021/07/25 09:21:38;;;;;;;4.22;2.80;;;;;;;;;;4976060;28;20034;-78
2021/07/25 09:24:17;;;;;;;4.95;3.05;;;;;;;;;;4991307;28;20042;-77
2021/07/25 09:26:51;;;;;;;4.25;2.78;;;;;;;;;;4975826;28;20055;-76
2021/07/25 09:29:18;;;;;;;4.13;2.90;;;;;;;;;;4993435;28;20145;-79
2021/07/25 09:31:43;;;;;;;7.15;3.47;;;;;;;;;;4997441;28;20057;-79
2021/07/25 09:34:08;;;;;;;4.65;3.10;;;;;;;;;;4979754;28;20045;-79
2021/07/25 09:36:36;;;;;;;5.77;3.00;;;;;;;;;;4997505;28;20038;-78
2021/07/25 09:39:01;;;;;;;3.85;3.05;;;;;;;;;;4977872;28;20052;-77
2021/07/25 09:41:27;;;;;;;5.30;3.33;;;;;;;;;;4976640;28;20042;-78
2021/07/25 09:43:56;;;;;;;5.70;2.90;;;;;;;;;;4976292;28;20026;-78
2021/07/25 09:46:22;;;;;;;7.00;3.20;;;;;;;;;;4977132;28;20101;-78
2021/07/25 09:48:53;;;;;;;4.03;2.70;;;;;;;;;;4992691;28;20539;-78
2021/07/25 09:51:19;;;;;;;5.38;3.00;;;;;;;;;;4993391;28;20504;-79
2021/07/25 09:53:46;;;;;;;3.65;2.60;;;;;;;;;;5000904;28;20034;-78
2021/07/25 09:56:12;;;;;;;4.78;2.95;;;;;;;;;;4995921;28;20457;-78
2021/07/25 09:58:38;;;;;;;3.92;2.88;;;;;;;;;;4974848;28;20629;-77
2021/07/25 10:01:06;;;;;;;4.78;3.00;;;;;;;;;;4991108;28;20030;-77
2021/07/25 10:03:34;;;;;;;4.03;2.83;;;;;;;;;;4971806;28;20056;-76
2021/07/25 10:06:19;;;;;;;4.32;2.78;;;;;;;;;;4989596;28;20089;-75
2021/07/25 10:08:48;;;;;;;4.05;2.80;;;;;;;;;;4988846;28;20084;-75
2021/07/25 10:11:20;;;;;;;4.40;3.13;;;;;;;;;;4988900;28;20039;-75
2021/07/25 10:13:49;;;;;;;4.85;3.10;;;;;;;;;;4988991;28;20476;-76
2021/07/25 10:16:17;;;;;;;5.07;3.10;;;;;;;;;;4988850;28;20022;-77
2021/07/25 10:18:44;;;;;;;3.70;2.47;;;;;;;;;;4988677;28;20038;-77
2021/07/25 10:21:09;;;;;;;5.90;3.10;;;;;;;;;;4972158;28;20026;-76
2021/07/25 10:23:36;;;;;;;4.63;3.17;;;;;;;;;;4971307;28;20483;-77
2021/07/25 10:26:04;;;;;;;4.30;2.83;;;;;;;;;;4987787;28;20041;-76
2021/07/25 10:28:30;;;;;;;7.07;3.13;;;;;;;;;;4988032;28;20045;-76
2021/07/25 10:30:58;;;;;;;5.43;3.33;;;;;;;;;;4971876;28;20026;-76
2021/07/25 10:33:24;;;;;;;4.77;3.23;;;;;;;;;;4988030;28;20022;-75
2021/07/25 10:35:54;;;;;;;5.57;2.70;;;;;;;;;;4988889;28;20272;-76
2021/07/25 10:38:20;;;;;;;4.45;3.13;;;;;;;;;;4972647;28;20088;-75
2021/07/25 10:40:46;;;;;;;4.88;3.40;;;;;;;;;;4998060;28;20026;-75
2021/07/25 10:43:13;;;;;;;4.35;2.88;;;;;;;;;;4978661;28;20141;-75
2021/07/25 10:45:39;;;;;;;4.85;3.15;;;;;;;;;;4990825;28;20054;-75
2021/07/25 10:48:15;;;;;;;4.40;2.90;;;;;;;;;;4991383;28;20105;-75
2021/07/25 10:50:40;;;;;;;4.33;3.17;;;;;;;;;;4989947;28;20358;-76
2021/07/25 10:53:06;;;;;;;6.50;3.27;;;;;;;;;;5000078;28;20345;-76
2021/07/25 10:55:34;;;;;;;4.53;3.10;;;;;;;;;;5006544;28;20310;-75
2021/07/25 10:58:06;;;;;;;4.13;3.08;;;;;;;;;;5022904;28;20034;-75
2021/07/25 11:00:39;;;;;;;6.72;2.97;;;;;;;;;;5002071;28;20511;-75
2021/07/25 11:03:05;;;;;;;4.50;2.83;;;;;;;;;;5006316;28;20041;-79
2021/07/25 11:05:30;;;;;;;5.40;3.10;;;;;;;;;;5010218;28;20030;-78
2021/07/25 11:07:57;;;;;;;4.07;2.60;;;;;;;;;;4999357;28;20404;-76
2021/07/25 11:10:32;;;;;;;5.00;3.17;;;;;;;;;;4998080;28;20073;-77
2021/07/25 11:12:58;;;;;;;4.07;2.83;;;;;;;;;;5004369;28;20109;-78
2021/07/25 11:15:41;;;;;;;4.37;2.40;;;;;;;;;;5013005;28;20052;-76
2021/07/25 11:18:08;;;;;;;4.82;2.60;;;;;;;;;;4990586;28;20579;-77
2021/07/25 11:20:34;;;;;;;4.18;2.60;;;;;;;;;;4988549;28;20081;-77
2021/07/25 11:23:00;;;;;;;3.87;2.50;;;;;;;;;;5005941;28;20069;-77
2021/07/25 11:25:35;;;;;;;4.00;2.50;;;;;;;;;;4991371;28;20034;-78
2021/07/25 11:28:01;;;;;;;4.15;2.70;;;;;;;;;;5006693;28;20030;-75
2021/07/25 11:30:45;;;;;;;4.63;2.83;;;;;;;;;;4991049;28;20029;-79
2021/07/25 11:33:30;;;;;;;3.78;2.50;;;;;;;;;;4985879;28;20030;-79
2021/07/25 11:35:57;;;;;;;4.53;2.83;;;;;;;;;;5009761;28;20030;-78
2021/07/25 11:38:22;;;;;;;4.65;2.65;;;;;;;;;;5009877;28;20069;-78
2021/07/25 11:40:53;;;;;;;5.73;2.73;;;;;;;;;;4995280;28;20038;-78
2021/07/25 11:43:18;;;;;;;4.68;2.83;;;;;;;;;;4994183;28;20484;-80
2021/07/25 11:45:43;;;;;;;3.70;2.80;;;;;;;;;;5009554;28;20042;-79
2021/07/25 11:48:21;;;;;;;3.80;2.77;;;;;;;;;;5009586;28;20173;-80
2021/07/25 11:50:49;;;;;;;4.75;2.70;;;;;;;;;;5015846;28;20053;-80
2021/07/25 11:53:15;;;;;;;5.68;3.22;;;;;;;;;;5009817;28;20038;-79
2021/07/25 11:55:40;;;;;;;3.70;2.80;;;;;;;;;;4993877;28;20026;-80
2021/07/25 11:58:12;;;;;;;4.47;2.80;;;;;;;;;;5004988;28;20040;-79
2021/07/25 12:00:38;;;;;;;7.70;3.13;;;;;;;;;;5006599;28;20389;-79
2021/07/25 12:03:03;;;;;;;4.10;3.03;;;;;;;;;;5013561;28;20494;-80
2021/07/25 12:05:29;;;;;;;5.63;3.30;;;;;;;;;;5019669;28;20102;-79
2021/07/25 12:07:54;;;;;;;4.10;2.90;;;;;;;;;;5029478;28;20033;-78
2021/07/25 12:10:30;;;;;;;5.80;3.33;;;;;;;;;;5030387;28;20022;-76
2021/07/25 12:13:08;;;;;;;4.13;2.97;;;;;;;;;;5029165;28;20029;-77
2021/07/25 12:15:33;;;;;;;6.40;3.05;;;;;;;;;;5032499;28;20036;-78
2021/07/25 12:17:59;;;;;;;4.90;2.77;;;;;;;;;;5013794;28;20246;-77
2021/07/25 12:20:27;;;;;;;4.53;3.00;;;;;;;;;;5025717;28;20076;-77
2021/07/25 12:22:56;;;;;;;4.50;3.10;;;;;;;;;;5046729;23;20039;-79
2021/07/25 12:25:22;;;;;;;5.22;2.90;;;;;;;;;;4948329;28;21054;-79
2021/07/25 12:28:00;;;;;;;4.10;2.63;;;;;;;;;;4956130;28;20026;-79
2021/07/25 12:30:26;;;;;;;4.57;2.80;;;;;;;;;;4972491;28;20246;-82
2021/07/25 12:32:51;;;;;;;5.67;3.00;;;;;;;;;;4975560;28;20031;-81
2021/07/25 12:35:20;;;;;;;4.03;2.73;;;;;;;;;;4952740;28;20149;-79
2021/07/25 12:37:51;;;;;;;5.43;2.92;;;;;;;;;;4962308;28;20486;-80
2021/07/25 12:40:43;;;;;;;6.38;3.08;;;;;;;;;;4976836;28;20064;-79
2021/07/25 12:43:30;;;;;;;5.10;3.20;;;;;;;;;;4950489;28;20042;-80
2021/07/25 12:46:36;;;;;;;5.32;2.80;;;;;;;;;;4938845;28;20042;-75
2021/07/25 12:49:26;;;;;;;5.45;2.90;;;;;;;;;;4954214;28;20216;-79
2021/07/25 12:52:21;;;;;;;4.75;3.08;;;;;;;;;;4961124;28;20026;-80
2021/07/25 12:54:55;;;;;;;4.78;3.13;;;;;;;;;;4953763;28;20050;-81
2021/07/25 12:57:26;;;;;;;4.10;2.90;;;;;;;;;;4956678;28;20065;-79
2021/07/25 12:59:57;;;;;;;4.40;2.90;;;;;;;;;;4954755;28;20039;-80
2021/07/25 13:05:19;;;;;;;3.90;2.72;;;;;;;;;;5002396;28;20043;-77
2021/07/25 13:07:45;;;;;;;3.97;2.60;;;;;;;;;;4986627;28;20042;-77
2021/07/25 13:24:20;;;;;;;6.10;2.85;;;;;;;;;;4864088;29;20064;-78
2021/07/25 13:26:46;;;;;;;4.80;3.00;;;;;;;;;;4866900;29;20039;-79
2021/07/25 13:29:12;;;;;;;4.10;2.90;;;;;;;;;;4915550;28;20135;-78
2021/07/25 13:31:37;;;;;;;4.10;2.77;;;;;;;;;;4952562;28;20152;-77
2021/07/25 13:34:02;;;;;;;4.45;2.67;;;;;;;;;;4955561;28;20108;-78
2021/07/25 13:36:28;;;;;;;4.45;2.88;;;;;;;;;;4955551;28;20046;-78
2021/07/25 13:38:53;;;;;;;4.47;2.90;;;;;;;;;;4961172;28;20038;-78
2021/07/25 13:41:20;;;;;;;3.70;2.40;;;;;;;;;;4970259;28;20330;-79
2021/07/25 13:43:50;;;;;;;3.95;2.60;;;;;;;;;;4963398;28;20038;-79
2021/07/25 13:46:29;;;;;;;4.95;2.70;;;;;;;;;;4958542;28;20531;-79
2021/07/25 13:48:55;;;;;;;4.05;2.80;;;;;;;;;;4961751;28;20035;-79
2021/07/25 13:51:22;;;;;;;4.20;2.70;;;;;;;;;;4977692;28;20034;-79
2021/07/25 13:53:47;;;;;;;;;;;;;;;;;;4973912;28;20026;-80
2021/07/25 13:56:16;;;;;;;4.37;2.50;;;;;;;;;;4944458;28;19941;-79
2021/07/25 13:58:42;;;;;;;5.57;2.80;;;;;;;;;;4938630;28;20145;-79
2021/07/25 14:01:07;;;;;;;3.70;2.43;;;;;;;;;;4956635;28;20038;-79
2021/07/25 14:03:33;;;;;;;3.70;2.70;;;;;;;;;;4957897;28;20121;-79
2021/07/25 14:05:58;;;;;;;3.87;2.60;;;;;;;;;;4945367;28;20034;-79
2021/07/25 14:08:23;;;;;;;3.93;2.50;;;;;;;;;;4938935;28;20121;-79
2021/07/25 14:10:49;;;;;;;3.97;2.50;;;;;;;;;;4958752;28;20077;-79
2021/07/25 14:13:14;;;;;;;4.67;2.63;;;;;;;;;;4962325;28;20030;-81
2021/07/25 14:15:40;;;;;;;4.67;2.80;;;;;;;;;;4977246;28;20026;-81
2021/07/25 14:18:06;;;;;;;4.00;2.63;;;;;;;;;;4960499;28;20027;-78
2021/07/25 14:20:43;;;;;;;4.07;2.50;;;;;;;;;;4950638;28;20080;-78
2021/07/25 14:23:09;;;;;;;4.10;2.53;;;;;;;;;;4959019;28;20125;-80
2021/07/25 14:25:40;;;;;;;3.30;2.10;;;;;;;;;;4971999;28;20192;-79
2021/07/25 14:28:06;;;;;;;4.35;2.65;;;;;;;;;;4972347;28;20038;-80
2021/07/25 14:30:31;;;;;;;6.57;2.90;;;;;;;;;;4983851;28;20034;-81
2021/07/25 14:32:56;;;;;;;4.40;2.77;;;;;;;;;;4977465;28;20035;-81
2021/07/25 14:35:22;;;;;;;5.87;2.90;;;;;;;;;;4987826;28;20046;-81
2021/07/25 14:37:47;;;;;;;5.00;2.60;;;;;;;;;;4971978;28;20034;-82
2021/07/25 14:40:15;;;;;;;4.10;2.60;;;;;;;;;;4971507;28;20042;-81
2021/07/25 14:42:40;;;;;;;3.92;2.60;;;;;;;;;;4937558;28;20026;-81
2021/07/25 14:45:07;;;;;;;4.90;2.70;;;;;;;;;;4949484;28;20066;-81
2021/07/25 14:47:33;;;;;;;4.20;3.10;;;;;;;;;;4948657;28;20038;-79
2021/07/25 14:49:58;;;;;;;3.97;2.72;;;;;;;;;;4953362;28;20042;-80
2021/07/25 14:52:24;;;;;;;4.33;2.90;;;;;;;;;;4948858;28;20060;-82
2021/07/25 14:54:49;;;;;;;5.03;3.00;;;;;;;;;;4961051;28;20041;-79
2021/07/25 14:57:16;;;;;;;4.68;2.67;;;;;;;;;;4954401;28;20213;-81
2021/07/25 14:59:41;;;;;;;3.90;2.63;;;;;;;;;;4960107;28;20054;-81
2021/07/25 15:02:28;;;;;;;5.70;2.87;;;;;;;;;;4944136;28;20034;-77